createdAt,value
2017-05-15T00:00:07.581Z,1018.94
2017-05-15T00:01:16.542Z,1018.94
2017-05-15T00:02:26.120Z,1018.98
2017-05-15T00:03:35.079Z,1018.97
2017-05-15T00:04:44.035Z,1019.04
2017-05-15T00:05:52.990Z,1019
2017-05-15T00:07:01.950Z,1019.01
2017-05-15T00:08:11.160Z,1019.03
2017-05-15T00:09:20.123Z,1018.98
2017-05-15T00:10:29.084Z,1018.99
2017-05-15T00:11:38.045Z,1018.99
2017-05-15T00:12:47.004Z,1019
2017-05-15T00:13:56.286Z,1018.96
2017-05-15T00:15:05.244Z,1018.93
2017-05-15T00:16:14.203Z,1018.94
2017-05-15T00:17:23.166Z,1018.91
2017-05-15T00:18:32.125Z,1018.91
2017-05-15T00:19:41.334Z,1018.9
2017-05-15T00:20:50.627Z,1018.88
2017-05-15T00:21:59.677Z,1018.91
2017-05-15T00:23:08.641Z,1018.92
2017-05-15T00:24:17.609Z,1018.95
2017-05-15T00:25:26.820Z,1018.94
2017-05-15T00:26:35.781Z,1018.9
2017-05-15T00:27:45.063Z,1018.87
2017-05-15T00:28:54.028Z,1018.88
2017-05-15T00:30:02.991Z,1018.86
2017-05-15T00:31:12.209Z,1018.85
2017-05-15T00:32:21.166Z,1018.85
2017-05-15T00:33:30.125Z,1018.84
2017-05-15T00:34:39.174Z,1018.87
2017-05-15T00:35:48.134Z,1018.86
2017-05-15T00:36:57.403Z,1018.86
2017-05-15T00:38:06.360Z,1018.87
2017-05-15T00:39:15.319Z,1018.87
2017-05-15T00:40:24.278Z,1018.88
2017-05-15T00:41:33.244Z,1018.89
2017-05-15T00:42:42.822Z,1018.92
2017-05-15T00:43:51.800Z,1018.94
2017-05-15T00:45:00.763Z,1018.92
2017-05-15T00:46:09.719Z,1018.95
2017-05-15T00:47:18.676Z,1018.98
2017-05-15T00:48:28.224Z,1018.95
2017-05-15T00:49:37.184Z,1018.95
2017-05-15T00:50:46.147Z,1018.95
2017-05-15T00:51:55.108Z,1018.95
2017-05-15T00:53:04.072Z,1018.94
2017-05-15T00:54:13.280Z,1018.97
2017-05-15T00:55:22.252Z,1018.98
2017-05-15T00:56:31.211Z,1018.99
2017-05-15T00:57:40.258Z,1018.98
2017-05-15T00:58:49.221Z,1019
2017-05-15T00:59:58.450Z,1018.98
2017-05-15T01:01:07.410Z,1019.02
2017-05-15T01:02:16.368Z,1019.01
2017-05-15T01:03:25.331Z,1019
2017-05-15T01:04:34.295Z,1019
2017-05-15T01:05:43.510Z,1018.98
2017-05-15T01:06:52.475Z,1018.98
2017-05-15T01:08:01.764Z,1019.01
2017-05-15T01:09:10.731Z,1019
2017-05-15T01:10:19.686Z,1019.02
2017-05-15T01:11:28.984Z,1019.06
2017-05-15T01:12:37.945Z,1019.11
2017-05-15T01:13:46.904Z,1019.13
2017-05-15T01:14:55.860Z,1019.17
2017-05-15T01:16:04.826Z,1019.22
2017-05-15T01:18:37.861Z,1019.23
2017-05-15T01:19:46.833Z,1019.26
2017-05-15T01:20:56.171Z,1019.25
2017-05-15T01:22:05.131Z,1019.27
2017-05-15T01:23:14.388Z,1019.33
2017-05-15T01:24:23.676Z,1019.32
2017-05-15T01:25:32.646Z,1019.4
2017-05-15T01:26:41.605Z,1019.42
2017-05-15T01:27:50.566Z,1019.4
2017-05-15T01:28:59.833Z,1019.45
2017-05-15T01:30:08.791Z,1019.41
2017-05-15T01:31:17.752Z,1019.42
2017-05-15T01:32:26.706Z,1019.42
2017-05-15T01:33:35.750Z,1019.45
2017-05-15T01:34:44.959Z,1019.5
2017-05-15T01:35:53.927Z,1019.46
2017-05-15T01:37:02.886Z,1019.51
2017-05-15T01:38:11.897Z,1019.48
2017-05-15T01:39:21.191Z,1019.5
2017-05-15T01:40:30.788Z,1019.47
2017-05-15T01:41:39.744Z,1019.47
2017-05-15T01:42:48.709Z,1019.5
2017-05-15T01:43:57.690Z,1019.46
2017-05-15T01:45:06.976Z,1019.5
2017-05-15T01:46:16.192Z,1019.46
2017-05-15T01:47:25.153Z,1019.46
2017-05-15T01:48:34.121Z,1019.46
2017-05-15T01:49:43.078Z,1019.44
2017-05-15T01:50:52.041Z,1019.45
2017-05-15T01:52:01.250Z,1019.49
2017-05-15T01:53:10.395Z,1019.5
2017-05-15T01:54:19.361Z,1019.48
2017-05-15T01:55:28.391Z,1019.47
2017-05-15T01:56:37.436Z,1019.52
2017-05-15T01:57:46.700Z,1019.49
2017-05-15T01:58:55.667Z,1019.53
2017-05-15T02:00:04.629Z,1019.5
2017-05-15T02:01:13.598Z,1019.54
2017-05-15T02:02:22.554Z,1019.52
2017-05-15T02:03:31.767Z,1019.6
2017-05-15T02:04:40.778Z,1019.57
2017-05-15T02:05:49.758Z,1019.57
2017-05-15T02:06:58.716Z,1019.58
2017-05-15T02:08:07.682Z,1019.61
2017-05-15T02:09:16.900Z,1019.55
2017-05-15T02:10:25.864Z,1019.6
2017-05-15T02:11:34.827Z,1019.6
2017-05-15T02:12:43.789Z,1019.63
2017-05-15T02:13:52.745Z,1019.64
2017-05-15T02:15:01.954Z,1019.62
2017-05-15T02:16:10.915Z,1019.63
2017-05-15T02:17:19.878Z,1019.62
2017-05-15T02:18:28.835Z,1019.59
2017-05-15T02:19:37.791Z,1019.57
2017-05-15T02:20:47.008Z,1019.53
2017-05-15T02:21:55.972Z,1019.57
2017-05-15T02:23:04.943Z,1019.52
2017-05-15T02:24:13.906Z,1019.55
2017-05-15T02:25:22.874Z,1019.52
2017-05-15T02:26:32.086Z,1019.57
2017-05-15T02:27:41.096Z,1019.55
2017-05-15T02:28:50.061Z,1019.56
2017-05-15T02:29:59.020Z,1019.57
2017-05-15T02:31:08.022Z,1019.57
2017-05-15T02:32:17.232Z,1019.59
2017-05-15T02:33:26.190Z,1019.54
2017-05-15T02:34:35.242Z,1019.55
2017-05-15T02:35:44.199Z,1019.57
2017-05-15T02:36:53.156Z,1019.57
2017-05-15T02:38:02.454Z,1019.56
2017-05-15T02:39:11.419Z,1019.62
2017-05-15T02:40:20.704Z,1019.58
2017-05-15T02:41:29.669Z,1019.61
2017-05-15T02:42:38.637Z,1019.61
2017-05-15T02:43:47.901Z,1019.62
2017-05-15T02:44:56.863Z,1019.65
2017-05-15T02:46:05.829Z,1019.71
2017-05-15T02:47:14.791Z,1019.73
2017-05-15T02:48:23.746Z,1019.76
2017-05-15T02:49:33.103Z,1019.72
2017-05-15T02:50:42.061Z,1019.74
2017-05-15T02:51:51.024Z,1019.77
2017-05-15T02:53:00.309Z,1019.7
2017-05-15T02:54:09.271Z,1019.72
2017-05-15T02:55:18.482Z,1019.72
2017-05-15T02:56:27.528Z,1019.69
2017-05-15T02:57:36.491Z,1019.68
2017-05-15T02:58:45.777Z,1019.68
2017-05-15T02:59:54.740Z,1019.7
2017-05-15T03:01:03.956Z,1019.74
2017-05-15T03:02:12.923Z,1019.76
2017-05-15T03:03:21.885Z,1019.76
2017-05-15T03:04:37.212Z,1019.75
2017-05-15T03:05:46.187Z,1019.71
2017-05-15T03:06:55.952Z,1019.75
2017-05-15T03:08:04.909Z,1019.74
2017-05-15T03:09:13.873Z,1019.78
2017-05-15T03:10:22.835Z,1019.79
2017-05-15T03:11:31.799Z,1019.73
2017-05-15T03:12:41.009Z,1019.74
2017-05-15T03:13:50.151Z,1019.76
2017-05-15T03:14:59.112Z,1019.75
2017-05-15T03:16:08.077Z,1019.73
2017-05-15T03:17:17.038Z,1019.74
2017-05-15T03:18:26.250Z,1019.74
2017-05-15T03:19:35.211Z,1019.74
2017-05-15T03:20:44.258Z,1019.77
2017-05-15T03:21:53.213Z,1019.77
2017-05-15T03:23:02.194Z,1019.75
2017-05-15T03:24:11.410Z,1019.76
2017-05-15T03:25:20.376Z,1019.76
2017-05-15T03:26:29.337Z,1019.82
2017-05-15T03:27:38.296Z,1019.83
2017-05-15T03:28:47.584Z,1019.78
2017-05-15T03:29:56.792Z,1019.75
2017-05-15T03:31:05.755Z,1019.76
2017-05-15T03:32:14.716Z,1019.76
2017-05-15T03:33:23.764Z,1019.8
2017-05-15T03:34:32.815Z,1019.8
2017-05-15T03:35:42.022Z,1019.82
2017-05-15T03:36:50.975Z,1019.82
2017-05-15T03:37:59.935Z,1019.83
2017-05-15T03:39:08.900Z,1019.84
2017-05-15T03:40:17.864Z,1019.82
2017-05-15T03:41:27.076Z,1019.84
2017-05-15T03:42:36.034Z,1019.84
2017-05-15T03:43:44.996Z,1019.83
2017-05-15T03:44:54.013Z,1019.84
2017-05-15T03:46:02.975Z,1019.87
2017-05-15T03:47:12.195Z,1019.85
2017-05-15T03:48:21.159Z,1019.85
2017-05-15T03:49:30.119Z,1019.87
2017-05-15T03:50:39.089Z,1019.89
2017-05-15T03:51:48.058Z,1019.88
2017-05-15T03:52:57.272Z,1019.85
2017-05-15T03:54:06.237Z,1019.91
2017-05-15T03:55:15.283Z,1019.9
2017-05-15T03:56:24.247Z,1019.92
2017-05-15T03:57:33.204Z,1019.92
2017-05-15T03:58:42.417Z,1019.94
2017-05-15T03:59:51.383Z,1019.93
2017-05-15T04:01:00.343Z,1019.92
2017-05-15T04:02:09.305Z,1019.94
2017-05-15T04:03:18.270Z,1019.98
2017-05-15T04:04:27.569Z,1019.99
2017-05-15T04:05:36.619Z,1019.97
2017-05-15T04:06:45.664Z,1019.98
2017-05-15T04:07:54.677Z,1019.97
2017-05-15T04:09:03.636Z,1020
2017-05-15T04:10:12.846Z,1020.03
2017-05-15T04:11:21.808Z,1020.04
2017-05-15T04:12:30.862Z,1020.07
2017-05-15T04:13:39.826Z,1020.11
2017-05-15T04:14:48.792Z,1020.1
2017-05-15T04:15:58.152Z,1020.13
2017-05-15T04:17:07.204Z,1020.14
2017-05-15T04:18:16.162Z,1020.18
2017-05-15T04:19:25.224Z,1020.22
2017-05-15T04:20:34.512Z,1020.31
2017-05-15T04:21:43.719Z,1020.3
2017-05-15T04:22:52.679Z,1020.36
2017-05-15T04:24:01.635Z,1020.35
2017-05-15T04:25:10.595Z,1020.35
2017-05-15T04:26:19.645Z,1020.39
2017-05-15T04:27:28.858Z,1020.37
2017-05-15T04:28:37.820Z,1020.35
2017-05-15T04:29:47.101Z,1020.38
2017-05-15T04:30:56.220Z,1020.37
2017-05-15T04:32:05.182Z,1020.37
2017-05-15T04:33:14.392Z,1020.36
2017-05-15T04:34:23.685Z,1020.37
2017-05-15T04:35:32.644Z,1020.37
2017-05-15T04:36:41.607Z,1020.38
2017-05-15T04:37:50.658Z,1020.42
2017-05-15T04:38:59.871Z,1020.37
2017-05-15T04:40:08.833Z,1020.41
2017-05-15T04:41:17.795Z,1020.44
2017-05-15T04:42:26.754Z,1020.43
2017-05-15T04:43:35.802Z,1020.43
2017-05-15T04:44:45.022Z,1020.44
2017-05-15T04:45:53.990Z,1020.46
2017-05-15T04:47:02.950Z,1020.47
2017-05-15T04:48:11.908Z,1020.45
2017-05-15T04:49:20.866Z,1020.49
2017-05-15T04:50:30.135Z,1020.47
2017-05-15T04:51:39.093Z,1020.55
2017-05-15T04:52:48.051Z,1020.56
2017-05-15T04:53:57.012Z,1020.57
2017-05-15T04:55:05.974Z,1020.57
2017-05-15T04:56:15.235Z,1020.59
2017-05-15T04:57:24.194Z,1020.58
2017-05-15T04:58:33.162Z,1020.59
2017-05-15T04:59:42.141Z,1020.58
2017-05-15T05:00:51.109Z,1020.61
2017-05-15T05:02:00.318Z,1020.63
2017-05-15T05:03:09.278Z,1020.66
2017-05-15T05:04:18.269Z,1020.71
2017-05-15T05:05:27.275Z,1020.69
2017-05-15T05:06:36.238Z,1020.73
2017-05-15T05:07:45.777Z,1020.75
2017-05-15T05:08:54.915Z,1020.77
2017-05-15T05:10:03.878Z,1020.75
2017-05-15T05:11:12.835Z,1020.75
2017-05-15T05:12:21.800Z,1020.82
2017-05-15T05:13:31.013Z,1020.79
2017-05-15T05:14:39.972Z,1020.81
2017-05-15T05:15:48.928Z,1020.85
2017-05-15T05:16:57.893Z,1020.85
2017-05-15T05:18:06.859Z,1020.86
2017-05-15T05:19:16.078Z,1020.87
2017-05-15T05:20:25.040Z,1020.94
2017-05-15T05:21:34.000Z,1020.88
2017-05-15T05:22:42.955Z,1020.91
2017-05-15T05:23:51.915Z,1020.9
2017-05-15T05:25:01.130Z,1020.87
2017-05-15T05:26:10.133Z,1020.92
2017-05-15T05:27:19.199Z,1020.93
2017-05-15T05:28:28.164Z,1020.92
2017-05-15T05:29:37.124Z,1020.92
2017-05-15T05:30:46.331Z,1020.93
2017-05-15T05:31:55.290Z,1020.94
2017-05-15T05:33:04.251Z,1020.96
2017-05-15T05:34:13.233Z,1020.95
2017-05-15T05:35:22.202Z,1020.95
2017-05-15T05:36:31.416Z,1020.96
2017-05-15T05:37:40.379Z,1021
2017-05-15T05:38:49.343Z,1021.02
2017-05-15T05:39:58.391Z,1021.05
2017-05-15T05:41:07.365Z,1021.03
2017-05-15T05:42:16.577Z,1021.04
2017-05-15T05:43:25.871Z,1021.05
2017-05-15T05:44:34.833Z,1021.07
2017-05-15T05:45:43.883Z,1021.08
2017-05-15T05:46:52.880Z,1021.11
2017-05-15T05:48:02.085Z,1021.09
2017-05-15T05:49:11.049Z,1021.1
2017-05-15T05:50:20.101Z,1021.11
2017-05-15T05:51:29.063Z,1021.18
2017-05-15T05:52:38.022Z,1021.17
2017-05-15T05:53:47.236Z,1021.15
2017-05-15T05:54:56.195Z,1021.17
2017-05-15T05:56:05.152Z,1021.18
2017-05-15T05:57:14.114Z,1021.22
2017-05-15T05:58:23.082Z,1021.23
2017-05-15T05:59:32.946Z,1021.21
2017-05-15T06:00:41.909Z,1021.24
2017-05-15T06:01:50.873Z,1021.23
2017-05-15T06:02:59.830Z,1021.22
2017-05-15T06:04:08.787Z,1021.25
2017-05-15T06:05:17.995Z,1021.25
2017-05-15T06:06:26.957Z,1021.24
2017-05-15T06:07:35.916Z,1021.26
2017-05-15T06:08:44.877Z,1021.25
2017-05-15T06:09:53.842Z,1021.27
2017-05-15T06:11:03.054Z,1021.32
2017-05-15T06:12:12.016Z,1021.35
2017-05-15T06:13:20.982Z,1021.34
2017-05-15T06:14:30.029Z,1021.35
2017-05-15T06:15:39.001Z,1021.36
2017-05-15T06:16:48.262Z,1021.39
2017-05-15T06:17:57.234Z,1021.38
2017-05-15T06:19:06.189Z,1021.39
2017-05-15T06:20:15.156Z,1021.43
2017-05-15T06:21:24.112Z,1021.42
2017-05-15T06:22:33.326Z,1021.46
2017-05-15T06:23:42.607Z,1021.46
2017-05-15T06:24:51.659Z,1021.55
2017-05-15T06:26:00.625Z,1021.5
2017-05-15T06:27:09.590Z,1021.51
2017-05-15T06:28:18.801Z,1021.5
2017-05-15T06:29:27.765Z,1021.45
2017-05-15T06:30:36.819Z,1021.48
2017-05-15T06:31:45.779Z,1021.49
2017-05-15T06:32:54.739Z,1021.49
2017-05-15T06:34:03.955Z,1021.49
2017-05-15T06:35:12.916Z,1021.47
2017-05-15T06:36:21.877Z,1021.5
2017-05-15T06:37:30.837Z,1021.52
2017-05-15T06:38:39.797Z,1021.54
2017-05-15T06:39:49.007Z,1021.54
2017-05-15T06:40:57.977Z,1021.62
2017-05-15T06:42:06.945Z,1021.64
2017-05-15T06:43:15.908Z,1021.62
2017-05-15T06:44:24.960Z,1021.61
2017-05-15T06:45:34.230Z,1021.65
2017-05-15T06:46:43.189Z,1021.7
2017-05-15T06:47:52.151Z,1021.69
2017-05-15T06:49:01.117Z,1021.73
2017-05-15T06:50:10.071Z,1021.7
2017-05-15T06:51:19.275Z,1021.71
2017-05-15T06:52:28.230Z,1021.68
2017-05-15T06:53:37.196Z,1021.7
2017-05-15T06:54:46.157Z,1021.69
2017-05-15T06:55:55.125Z,1021.68
2017-05-15T06:57:04.453Z,1021.7
2017-05-15T06:58:13.414Z,1021.65
2017-05-15T06:59:22.376Z,1021.69
2017-05-15T07:00:31.335Z,1021.71
2017-05-15T07:01:40.292Z,1021.71
2017-05-15T07:02:49.508Z,1021.73
2017-05-15T07:03:58.479Z,1021.77
2017-05-15T07:05:07.442Z,1021.78
2017-05-15T07:06:16.403Z,1021.77
2017-05-15T07:07:25.451Z,1021.8
2017-05-15T07:08:34.663Z,1021.79
2017-05-15T07:09:43.622Z,1021.81
2017-05-15T07:10:52.584Z,1021.84
2017-05-15T07:12:01.869Z,1021.82
2017-05-15T07:13:10.856Z,1021.86
2017-05-15T07:14:20.070Z,1021.87
2017-05-15T07:15:29.025Z,1021.86
2017-05-15T07:16:37.985Z,1021.86
2017-05-15T07:17:46.940Z,1021.87
2017-05-15T07:18:55.994Z,1021.86
2017-05-15T07:20:05.205Z,1021.89
2017-05-15T07:21:14.256Z,1021.93
2017-05-15T07:22:23.218Z,1021.94
2017-05-15T07:23:32.179Z,1022.01
2017-05-15T07:24:41.141Z,1021.97
2017-05-15T07:25:50.355Z,1021.97
2017-05-15T07:26:59.411Z,1021.93
2017-05-15T07:28:08.377Z,1022.06
2017-05-15T07:29:17.340Z,1022.05
2017-05-15T07:30:26.303Z,1022.06
2017-05-15T07:31:35.896Z,1022.09
2017-05-15T07:32:45.191Z,1022.1
2017-05-15T07:33:54.163Z,1022.1
2017-05-15T07:35:03.213Z,1022.09
2017-05-15T07:36:12.172Z,1022.15
2017-05-15T07:37:21.386Z,1022.14
2017-05-15T07:38:30.352Z,1022.17
2017-05-15T07:39:39.317Z,1022.21
2017-05-15T07:40:48.279Z,1022.17
2017-05-15T07:41:57.238Z,1022.2
2017-05-15T07:43:06.446Z,1022.25
2017-05-15T07:44:15.406Z,1022.27
2017-05-15T07:45:24.375Z,1022.28
2017-05-15T07:46:33.335Z,1022.26
2017-05-15T07:47:42.678Z,1022.26
2017-05-15T07:48:51.889Z,1022.23
2017-05-15T07:50:00.852Z,1022.22
2017-05-15T07:51:09.825Z,1022.3
2017-05-15T07:52:19.104Z,1022.29
2017-05-15T07:53:28.152Z,1022.25
2017-05-15T07:54:37.372Z,1022.3
2017-05-15T07:55:46.430Z,1022.27
2017-05-15T07:56:55.394Z,1022.3
2017-05-15T07:58:04.357Z,1022.26
2017-05-15T07:59:13.408Z,1022.3
2017-05-15T08:00:22.621Z,1022.32
2017-05-15T08:01:31.585Z,1022.38
2017-05-15T08:02:40.543Z,1022.38
2017-05-15T08:03:49.509Z,1022.36
2017-05-15T08:04:58.560Z,1022.39
2017-05-15T08:06:07.769Z,1022.44
2017-05-15T08:07:16.731Z,1022.42
2017-05-15T08:08:25.886Z,1022.52
2017-05-15T08:09:34.860Z,1022.55
2017-05-15T08:10:43.827Z,1022.52
2017-05-15T08:11:53.244Z,1022.54
2017-05-15T08:13:02.289Z,1022.59
2017-05-15T08:14:11.253Z,1022.58
2017-05-15T08:15:20.225Z,1022.61
2017-05-15T08:16:29.190Z,1022.61
2017-05-15T08:17:38.775Z,1022.63
2017-05-15T08:18:47.746Z,1022.62
2017-05-15T08:19:56.885Z,1022.68
2017-05-15T08:21:06.185Z,1022.72
2017-05-15T08:22:15.235Z,1022.7
2017-05-15T08:23:24.499Z,1022.78
2017-05-15T08:24:33.460Z,1022.77
2017-05-15T08:25:42.426Z,1022.82
2017-05-15T08:26:51.439Z,1022.84
2017-05-15T08:28:00.405Z,1022.9
2017-05-15T08:29:09.616Z,1022.93
2017-05-15T08:30:18.671Z,1022.9
2017-05-15T08:31:27.965Z,1022.95
2017-05-15T08:32:36.935Z,1022.98
2017-05-15T08:33:46.027Z,1023.02
2017-05-15T08:34:55.247Z,1022.99
2017-05-15T08:36:04.220Z,1023.08
2017-05-15T08:37:13.269Z,1023.01
2017-05-15T08:38:22.234Z,1023.08
2017-05-15T08:39:31.202Z,1023.08
2017-05-15T08:40:40.463Z,1023.08
2017-05-15T08:41:49.430Z,1023.15
2017-05-15T08:42:58.394Z,1023.14
2017-05-15T08:44:07.354Z,1023.19
2017-05-15T08:45:16.403Z,1023.21
2017-05-15T08:46:25.612Z,1023.24
2017-05-15T08:47:34.577Z,1023.32
2017-05-15T08:48:43.552Z,1023.28
2017-05-15T08:49:52.518Z,1023.3
2017-05-15T08:51:01.479Z,1023.28
2017-05-15T08:52:10.691Z,1023.29
2017-05-15T08:53:19.648Z,1023.28
2017-05-15T08:54:28.611Z,1023.32
2017-05-15T08:55:37.570Z,1023.33
2017-05-15T08:56:46.530Z,1023.3
2017-05-15T08:57:55.743Z,1023.31
2017-05-15T08:59:04.705Z,1023.32
2017-05-15T09:00:13.715Z,1023.34
2017-05-15T09:01:22.678Z,1023.34
2017-05-15T09:02:31.639Z,1023.36
2017-05-15T09:03:40.905Z,1023.36
2017-05-15T09:04:49.863Z,1023.3
2017-05-15T09:05:58.828Z,1023.32
2017-05-15T09:07:07.787Z,1023.33
2017-05-15T09:08:16.836Z,1023.35
2017-05-15T09:09:26.051Z,1023.4
2017-05-15T09:10:35.017Z,1023.46
2017-05-15T09:11:43.978Z,1023.51
2017-05-15T09:12:52.937Z,1023.53
2017-05-15T09:14:01.903Z,1023.46
2017-05-15T09:15:11.321Z,1023.51
2017-05-15T09:16:20.605Z,1023.51
2017-05-15T09:17:29.570Z,1023.48
2017-05-15T09:18:38.533Z,1023.52
2017-05-15T09:19:47.502Z,1023.55
2017-05-15T09:20:56.723Z,1023.55
2017-05-15T09:22:05.688Z,1023.5
2017-05-15T09:23:14.653Z,1023.57
2017-05-15T09:24:23.621Z,1023.57
2017-05-15T09:25:32.588Z,1023.54
2017-05-15T09:26:41.801Z,1023.59
2017-05-15T09:27:50.851Z,1023.59
2017-05-15T09:28:59.818Z,1023.57
2017-05-15T09:30:08.783Z,1023.61
2017-05-15T09:31:17.741Z,1023.59
2017-05-15T09:32:26.953Z,1023.64
2017-05-15T09:33:35.916Z,1023.65
2017-05-15T09:34:44.879Z,1023.65
2017-05-15T09:35:53.837Z,1023.66
2017-05-15T09:37:02.800Z,1023.66
2017-05-15T09:38:12.013Z,1023.66
2017-05-15T09:39:21.301Z,1023.66
2017-05-15T09:40:30.264Z,1023.75
2017-05-15T09:41:39.231Z,1023.66
2017-05-15T09:42:48.201Z,1023.76
2017-05-15T09:43:57.409Z,1023.7
2017-05-15T09:45:06.373Z,1023.67
2017-05-15T09:46:15.335Z,1023.74
2017-05-15T09:47:24.301Z,1023.75
2017-05-15T09:48:33.263Z,1023.66
2017-05-15T09:49:42.476Z,1023.68
2017-05-15T09:50:51.445Z,1023.71
2017-05-15T09:52:00.451Z,1023.74
2017-05-15T09:53:09.420Z,1023.77
2017-05-15T09:54:18.415Z,1023.83
2017-05-15T09:55:27.629Z,1023.78
2017-05-15T09:56:36.595Z,1023.84
2017-05-15T09:57:45.754Z,1023.8
2017-05-15T09:58:54.715Z,1023.77
2017-05-15T10:00:03.685Z,1023.81
2017-05-15T10:01:12.903Z,1023.8
2017-05-15T10:02:21.869Z,1023.75
2017-05-15T10:03:30.831Z,1023.74
2017-05-15T10:04:39.795Z,1023.76
2017-05-15T10:05:48.765Z,1023.73
2017-05-15T10:06:57.984Z,1023.79
2017-05-15T10:08:06.943Z,1023.74
2017-05-15T10:09:15.906Z,1023.71
2017-05-15T10:10:24.916Z,1023.7
2017-05-15T10:11:33.878Z,1023.7
2017-05-15T10:12:43.092Z,1023.68
2017-05-15T10:13:52.058Z,1023.69
2017-05-15T10:15:01.026Z,1023.7
2017-05-15T10:16:09.993Z,1023.69
2017-05-15T10:17:18.955Z,1023.71
2017-05-15T10:18:28.224Z,1023.68
2017-05-15T10:19:37.191Z,1023.71
2017-05-15T10:20:46.154Z,1023.56
2017-05-15T10:21:55.119Z,1023.59
2017-05-15T10:23:04.079Z,1023.57
2017-05-15T10:24:13.388Z,1023.55
2017-05-15T10:25:22.352Z,1023.49
2017-05-15T10:26:31.311Z,1023.51
2017-05-15T10:27:40.272Z,1023.54
2017-05-15T10:28:49.237Z,1023.63
2017-05-15T10:29:58.772Z,1023.6
2017-05-15T10:31:07.742Z,1023.6
2017-05-15T10:32:16.716Z,1023.57
2017-05-15T10:33:25.683Z,1023.53
2017-05-15T10:34:34.652Z,1023.59
2017-05-15T10:35:43.868Z,1023.53
2017-05-15T10:36:52.830Z,1023.54
2017-05-15T10:38:01.793Z,1023.57
2017-05-15T10:39:10.759Z,1023.54
2017-05-15T10:40:19.723Z,1023.56
2017-05-15T10:41:28.936Z,1023.41
2017-05-15T10:42:37.899Z,1023.41
2017-05-15T10:43:46.872Z,1023.32
2017-05-15T10:44:55.838Z,1023.35
2017-05-15T10:46:04.798Z,1023.32
2017-05-15T10:47:14.007Z,1023.32
2017-05-15T10:48:22.972Z,1023.37
2017-05-15T10:49:31.944Z,1023.35
2017-05-15T10:50:40.902Z,1023.39
2017-05-15T10:51:49.862Z,1023.42
2017-05-15T10:52:59.123Z,1023.41
2017-05-15T10:54:08.096Z,1023.46
2017-05-15T10:55:17.060Z,1023.37
2017-05-15T10:56:26.022Z,1023.41
2017-05-15T10:57:34.985Z,1023.39
2017-05-15T10:58:44.214Z,1023.34
2017-05-15T10:59:53.175Z,1023.35
2017-05-15T11:01:02.142Z,1023.36
2017-05-15T11:02:11.116Z,1023.4
2017-05-15T11:03:20.081Z,1023.4
2017-05-15T11:04:29.847Z,1023.36
2017-05-15T11:05:38.865Z,1023.32
2017-05-15T11:06:47.834Z,1023.34
2017-05-15T11:07:56.800Z,1023.4
2017-05-15T11:09:05.809Z,1023.35
2017-05-15T11:10:15.024Z,1023.36
2017-05-15T11:11:23.990Z,1023.43
2017-05-15T11:12:32.955Z,1023.45
2017-05-15T11:13:41.918Z,1023.4
2017-05-15T11:14:50.879Z,1023.38
2017-05-15T11:16:00.094Z,1023.43
2017-05-15T11:17:09.062Z,1023.37
2017-05-15T11:18:18.031Z,1023.37
2017-05-15T11:19:27.001Z,1023.35
2017-05-15T11:20:35.971Z,1023.3
2017-05-15T11:21:45.459Z,1023.33
2017-05-15T11:22:54.420Z,1023.34
2017-05-15T11:24:03.382Z,1023.3
2017-05-15T11:25:12.349Z,1023.35
2017-05-15T11:26:21.315Z,1023.39
2017-05-15T11:27:30.728Z,1023.33
2017-05-15T11:28:39.699Z,1023.33
2017-05-15T11:29:48.716Z,1023.3
2017-05-15T11:30:58.008Z,1023.3
2017-05-15T11:32:06.971Z,1023.26
2017-05-15T11:33:16.193Z,1023.3
2017-05-15T11:34:25.157Z,1023.32
2017-05-15T11:35:34.113Z,1023.31
2017-05-15T11:36:43.074Z,1023.28
2017-05-15T11:37:52.035Z,1023.24
2017-05-15T11:39:01.250Z,1023.25
2017-05-15T11:40:10.221Z,1023.2
2017-05-15T11:41:19.187Z,1023.2
2017-05-15T11:42:28.153Z,1023.2
2017-05-15T11:43:37.120Z,1023.19
2017-05-15T11:44:46.335Z,1023.21
2017-05-15T11:45:55.297Z,1023.21
2017-05-15T11:47:04.261Z,1023.2
2017-05-15T11:48:13.226Z,1023.19
2017-05-15T11:49:22.193Z,1023.21
2017-05-15T11:50:31.406Z,1023.2
2017-05-15T11:51:40.365Z,1023.27
2017-05-15T11:52:49.323Z,1023.27
2017-05-15T11:53:58.282Z,1023.25
2017-05-15T11:55:07.244Z,1023.27
2017-05-15T11:56:16.461Z,1023.32
2017-05-15T11:57:25.426Z,1023.36
2017-05-15T11:58:34.390Z,1023.36
2017-05-15T11:59:43.442Z,1023.4
2017-05-15T12:00:52.410Z,1023.33
2017-05-15T12:02:01.709Z,1023.25
2017-05-15T12:03:10.668Z,1023.34
2017-05-15T12:04:19.630Z,1023.25
2017-05-15T12:05:28.590Z,1023.26
2017-05-15T12:06:37.574Z,1023.25
2017-05-15T12:07:46.789Z,1023.25
2017-05-15T12:08:55.752Z,1023.25
2017-05-15T12:10:04.712Z,1023.24
2017-05-15T12:11:13.679Z,1023.28
2017-05-15T12:12:22.812Z,1023.29
2017-05-15T12:13:32.080Z,1023.25
2017-05-15T12:14:41.044Z,1023.22
2017-05-15T12:15:50.009Z,1023.25
2017-05-15T12:16:58.971Z,1023.24
2017-05-15T12:18:07.932Z,1023.18
2017-05-15T12:19:17.145Z,1023.27
2017-05-15T12:20:26.109Z,1023.32
2017-05-15T12:21:35.073Z,1023.33
2017-05-15T12:22:44.037Z,1023.28
2017-05-15T12:23:53.000Z,1023.24
2017-05-15T12:25:02.214Z,1023.27
2017-05-15T12:26:11.170Z,1023.27
2017-05-15T12:27:20.140Z,1023.23
2017-05-15T12:28:29.104Z,1023.21
2017-05-15T12:29:38.065Z,1023.28
2017-05-15T12:30:47.281Z,1023.21
2017-05-15T12:31:56.332Z,1023.16
2017-05-15T12:33:05.289Z,1023.27
2017-05-15T12:34:14.253Z,1023.24
2017-05-15T12:35:23.228Z,1023.24
2017-05-15T12:36:32.445Z,1023.24
2017-05-15T12:37:41.408Z,1023.27
2017-05-15T12:38:50.373Z,1023.27
2017-05-15T12:39:59.334Z,1023.22
2017-05-15T12:41:08.298Z,1023.27
2017-05-15T12:42:17.557Z,1023.28
2017-05-15T12:43:26.616Z,1023.29
2017-05-15T12:44:35.586Z,1023.21
2017-05-15T12:45:44.549Z,1023.3
2017-05-15T12:46:53.519Z,1023.33
2017-05-15T12:48:02.742Z,1023.32
2017-05-15T12:49:11.703Z,1023.29
2017-05-15T12:50:20.666Z,1023.27
2017-05-15T12:51:29.631Z,1023.31
2017-05-15T12:52:38.591Z,1023.25
2017-05-15T12:53:47.800Z,1023.26
2017-05-15T12:54:56.851Z,1023.19
2017-05-15T12:56:05.811Z,1023.22
2017-05-15T12:57:14.775Z,1023.22
2017-05-15T12:58:23.751Z,1023.22
2017-05-15T12:59:32.966Z,1023.22
2017-05-15T13:00:41.927Z,1023.25
2017-05-15T13:01:50.887Z,1023.27
2017-05-15T13:03:00.176Z,1023.27
2017-05-15T13:04:09.137Z,1023.31
2017-05-15T13:05:18.552Z,1023.24
2017-05-15T13:06:27.516Z,1023.32
2017-05-15T13:07:36.479Z,1023.23
2017-05-15T13:08:45.451Z,1023.27
2017-05-15T13:09:54.415Z,1023.23
2017-05-15T13:11:03.679Z,1023.34
2017-05-15T13:12:12.642Z,1023.28
2017-05-15T13:13:21.617Z,1023.31
2017-05-15T13:14:30.581Z,1023.34
2017-05-15T13:15:39.548Z,1023.29
2017-05-15T13:16:48.756Z,1023.26
2017-05-15T13:17:57.717Z,1023.34
2017-05-15T13:19:06.883Z,1023.36
2017-05-15T13:20:15.842Z,1023.28
2017-05-15T13:21:24.801Z,1023.22
2017-05-15T13:22:34.015Z,1023.19
2017-05-15T13:23:43.033Z,1023.18
2017-05-15T13:24:52.164Z,1023.24
2017-05-15T13:26:01.127Z,1023.17
2017-05-15T13:27:10.087Z,1023.2
2017-05-15T13:28:19.300Z,1023.11
2017-05-15T13:29:28.263Z,1023.12
2017-05-15T13:30:37.231Z,1023.09
2017-05-15T13:31:46.191Z,1023.03
2017-05-15T13:32:55.248Z,1023.06
2017-05-15T13:34:04.547Z,1023.06
2017-05-15T13:35:13.915Z,1023.02
2017-05-15T13:36:22.871Z,1023
2017-05-15T13:37:31.839Z,1023.02
2017-05-15T13:38:40.799Z,1023.03
2017-05-15T13:39:50.017Z,1023.04
2017-05-15T13:40:58.977Z,1022.99
2017-05-15T13:42:07.940Z,1023.03
2017-05-15T13:43:16.910Z,1023.01
2017-05-15T13:44:25.961Z,1023.01
2017-05-15T13:45:35.504Z,1023
2017-05-15T13:46:44.521Z,1023.03
2017-05-15T13:47:53.493Z,1023.04
2017-05-15T13:49:02.492Z,1022.97
2017-05-15T13:50:11.455Z,1023.02
2017-05-15T13:51:20.671Z,1022.97
2017-05-15T13:52:29.640Z,1022.92
2017-05-15T13:53:38.607Z,1022.92
2017-05-15T13:54:47.569Z,1022.96
2017-05-15T13:55:56.527Z,1022.92
2017-05-15T13:57:05.740Z,1022.86
2017-05-15T13:58:14.764Z,1022.92
2017-05-15T13:59:23.727Z,1022.96